Time;durP1;ratioP1;P1;durP2;ratioP2;P2;SDS_P1;SDS_P2;PMS_P1;PMS_P2;Temp;Humidity;BMP_temperature;BMP_pressure;BME280_temperature;BME280_humidity;BME280_pressure;Samples;Min_cycle;Max_cycle;Signal;HPM_P1;HPM_P2
2023/09/25 00:02:18;;;;;;;5.10;3.30;;;;;;;14.54;100.00;99960.20;137114;1272;22703;-81
2023/09/25 00:05:19;;;;;;;4.60;3.10;;;;;;;14.49;100.00;99958.55;137511;1272;23216;-81
2023/09/25 00:08:20;;;;;;;4.80;3.00;;;;;;;14.47;100.00;99961.33;137188;1272;22379;-81
2023/09/25 00:11:21;;;;;;;3.90;3.50;;;;;;;14.43;100.00;99966.00;137022;1272;22360;-79
2023/09/25 00:14:22;;;;;;;3.40;3.00;;;;;;;14.41;100.00;99977.86;137357;1272;22524;-82
2023/09/25 00:17:24;;;;;;;5.70;3.10;;;;;;;14.39;100.00;99973.61;137453;1272;22264;-80
2023/09/25 00:20:25;;;;;;;4.00;3.10;;;;;;;14.36;100.00;99975.13;137020;1272;22267;-79
2023/09/25 00:23:26;;;;;;;7.00;3.10;;;;;;;14.30;100.00;99970.33;137022;1272;22592;-81
2023/09/25 00:26:27;;;;;;;5.20;3.00;;;;;;;14.25;100.00;99971.83;137676;1272;22514;-82
2023/09/25 00:29:28;;;;;;;9.80;4.50;;;;;;;14.21;100.00;99973.88;137046;1272;22271;-80
2023/09/25 00:32:29;;;;;;;6.10;3.10;;;;;;;14.18;100.00;99973.31;137098;1272;22926;-80
2023/09/25 00:35:30;;;;;;;5.30;3.30;;;;;;;14.17;100.00;99972.23;137712;1272;22542;-80
2023/09/25 00:38:31;;;;;;;6.20;3.70;;;;;;;14.15;100.00;99976.40;137086;1272;22168;-80
2023/09/25 00:41:33;;;;;;;4.10;3.30;;;;;;;14.12;100.00;99974.96;137092;1272;22443;-82
2023/09/25 00:44:34;;;;;;;6.70;3.50;;;;;;;14.09;100.00;99977.02;137423;1272;24189;-81
2023/09/25 00:47:35;;;;;;;8.10;3.80;;;;;;;14.08;100.00;99976.98;137421;1272;22200;-81
2023/09/25 00:50:36;;;;;;;5.80;4.30;;;;;;;14.04;100.00;99978.86;137064;1272;22605;-80
2023/09/25 00:53:40;;;;;;;5.40;3.80;;;;;;;14.05;100.00;99978.88;137137;1272;22529;-82
2023/09/25 00:56:42;;;;;;;5.40;4.10;;;;;;;14.11;100.00;99984.21;137492;1272;22240;-80
2023/09/25 00:59:43;;;;;;;11.20;4.60;;;;;;;14.13;100.00;99988.45;137104;1272;22173;-81
2023/09/25 01:02:44;;;;;;;8.00;3.80;;;;;;;14.14;100.00;99984.62;137245;1272;22479;-82
2023/09/25 01:05:48;;;;;;;8.20;4.20;;;;;;;14.15;100.00;99985.33;137591;1272;22567;-82
2023/09/25 01:08:49;;;;;;;7.50;3.80;;;;;;;14.14;100.00;99987.24;137105;1272;25929;-80
2023/09/25 01:11:50;;;;;;;5.40;3.40;;;;;;;14.15;100.00;99978.34;137180;1272;22557;-81
2023/09/25 01:14:51;;;;;;;5.40;3.50;;;;;;;14.16;100.00;99970.83;137502;1272;22557;-81
2023/09/25 01:17:52;;;;;;;51.30;5.40;;;;;;;14.18;100.00;99968.73;137178;1272;22848;-80
2023/09/25 01:20:55;;;;;;;9.80;3.90;;;;;;;14.17;100.00;99968.73;136976;1272;22529;-80
2023/09/25 01:23:56;;;;;;;8.40;3.40;;;;;;;14.15;100.00;99965.39;137471;1272;22527;-80
2023/09/25 01:27:01;;;;;;;5.20;3.40;;;;;;;14.13;100.00;99964.30;137457;1272;22224;-77
2023/09/25 01:30:02;;;;;;;7.60;3.20;;;;;;;14.11;100.00;99964.79;137115;1272;22377;-78
2023/09/25 01:33:04;;;;;;;4.80;3.50;;;;;;;14.07;100.00;99962.27;136998;1272;22513;-81
2023/09/25 01:36:05;;;;;;;20.60;4.40;;;;;;;14.04;100.00;99968.36;137642;1272;22549;-80
2023/09/25 01:39:08;;;;;;;7.60;4.10;;;;;;;14.01;100.00;99969.54;137001;1272;22536;-81
2023/09/25 01:42:09;;;;;;;12.10;4.00;;;;;;;13.99;100.00;99971.44;137081;1272;22211;-82
2023/09/25 01:45:13;;;;;;;9.20;3.80;;;;;;;13.99;100.00;99961.46;137467;1272;22177;-82
2023/09/25 01:48:14;;;;;;;9.00;3.30;;;;;;;13.98;100.00;99953.05;137090;1266;22359;-81
2023/09/25 01:51:15;;;;;;;4.60;3.20;;;;;;;13.94;100.00;99943.88;137103;1272;22387;-81
2023/09/25 01:54:16;;;;;;;6.30;3.70;;;;;;;13.87;100.00;99941.48;137454;1272;22475;-83
2023/09/25 01:57:17;;;;;;;5.60;3.50;;;;;;;13.79;100.00;99947.63;137418;1272;22162;-81
2023/09/25 02:00:18;;;;;;;5.20;3.70;;;;;;;13.72;100.00;99949.96;137000;1272;22238;-82
2023/09/25 02:03:19;;;;;;;5.50;4.10;;;;;;;13.68;100.00;99945.52;137173;1272;22542;-83
2023/09/25 02:06:21;;;;;;;6.40;3.70;;;;;;;13.62;100.00;99944.38;137569;1272;22239;-81
2023/09/25 02:09:22;;;;;;;36.20;5.30;;;;;;;13.55;100.00;99939.88;136819;1272;22262;-82
2023/09/25 02:12:23;;;;;;;16.50;4.30;;;;;;;13.50;100.00;99938.56;137044;1272;22657;-81
2023/09/25 02:15:24;;;;;;;6.80;3.60;;;;;;;13.49;100.00;99948.33;137721;1272;22443;-81
2023/09/25 02:18:25;;;;;;;4.00;3.50;;;;;;;13.45;100.00;99950.20;137005;1272;22541;-81
2023/09/25 02:21:27;;;;;;;5.90;4.10;;;;;;;13.41;100.00;99948.02;137030;1272;22309;-82
2023/09/25 02:24:28;;;;;;;7.10;4.00;;;;;;;13.35;100.00;99953.16;137658;1272;22577;-85
2023/09/25 02:27:29;;;;;;;4.70;3.50;;;;;;;13.27;100.00;99956.51;137228;1272;22249;-82
2023/09/25 02:30:30;;;;;;;5.50;3.80;;;;;;;13.22;100.00;99954.67;137072;1272;22421;-81
2023/09/25 02:33:31;;;;;;;5.90;3.70;;;;;;;13.19;100.00;99958.46;137469;1272;22606;-84
2023/09/25 02:36:32;;;;;;;6.00;4.00;;;;;;;13.19;100.00;99955.30;137508;1272;22519;-82
2023/09/25 02:39:34;;;;;;;6.70;3.60;;;;;;;13.22;100.00;99955.55;137272;1272;22447;-81
2023/09/25 02:42:35;;;;;;;38.90;4.40;;;;;;;13.28;100.00;99954.61;137295;1272;22530;-80
2023/09/25 02:45:36;;;;;;;8.50;3.90;;;;;;;13.33;100.00;99958.00;137618;1272;22423;-81
2023/09/25 02:48:37;;;;;;;4.10;3.70;;;;;;;13.36;100.00;99955.96;137178;1272;22529;-81
2023/09/25 02:51:38;;;;;;;21.30;5.00;;;;;;;13.38;100.00;99955.14;137351;1272;22519;-82
2023/09/25 02:54:39;;;;;;;13.30;3.80;;;;;;;13.42;100.00;99960.45;137792;1272;22156;-81
2023/09/25 02:57:41;;;;;;;4.20;3.80;;;;;;;13.43;100.00;99962.39;137225;1272;22581;-81
2023/09/25 03:00:42;;;;;;;7.30;4.10;;;;;;;13.45;100.00;99961.90;137692;1272;22779;-81
2023/09/25 03:03:43;;;;;;;6.50;4.00;;;;;;;13.47;100.00;99959.32;137638;1272;22567;-81
2023/09/25 03:06:44;;;;;;;6.30;3.90;;;;;;;13.47;100.00;99961.75;137412;1264;22260;-81
2023/09/25 03:09:45;;;;;;;11.80;4.30;;;;;;;13.46;100.00;99960.17;137236;1267;22196;-80
2023/09/25 03:12:47;;;;;;;4.70;4.30;;;;;;;13.47;100.00;99960.37;137371;1272;22548;-80
2023/09/25 03:15:48;;;;;;;4.50;4.00;;;;;;;13.49;100.00;99962.33;137416;1272;22684;-81
2023/09/25 03:18:49;;;;;;;6.00;4.40;;;;;;;13.49;100.00;99960.58;136951;1272;22409;-81
2023/09/25 03:21:50;;;;;;;40.70;5.60;;;;;;;13.48;100.00;99957.59;137168;1272;22533;-87
2023/09/25 03:24:51;;;;;;;6.00;4.40;;;;;;;13.48;100.00;99963.00;137682;1272;22200;-83
2023/09/25 03:27:52;;;;;;;9.30;4.80;;;;;;;13.48;100.00;99967.54;137060;1272;22224;-81
2023/09/25 03:30:53;;;;;;;6.10;4.40;;;;;;;13.46;100.00;99971.89;137765;1272;22773;-81
2023/09/25 03:33:54;;;;;;;17.50;4.90;;;;;;;13.47;100.00;99966.14;137750;1272;22214;-80
2023/09/25 03:36:56;;;;;;;31.90;5.50;;;;;;;13.44;100.00;99972.73;137410;1268;22305;-81
2023/09/25 03:39:57;;;;;;;7.90;4.50;;;;;;;13.43;100.00;99977.44;137754;1272;22257;-80
2023/09/25 03:42:58;;;;;;;7.20;4.90;;;;;;;13.44;100.00;99981.98;137703;1272;22097;-80
2023/09/25 03:45:59;;;;;;;14.10;5.20;;;;;;;13.45;100.00;99980.60;137741;1272;22191;-80
2023/09/25 03:49:05;;;;;;;6.70;4.60;;;;;;;13.43;100.00;99977.08;137724;1272;22185;-81
2023/09/25 03:52:06;;;;;;;9.10;4.30;;;;;;;13.39;100.00;99976.14;137709;1266;22071;-81
2023/09/25 03:55:07;;;;;;;35.10;5.30;;;;;;;13.35;100.00;99976.41;137716;1272;22225;-79
2023/09/25 03:58:09;;;;;;;7.70;4.60;;;;;;;13.31;100.00;99978.08;137287;1272;22230;-80
2023/09/25 04:01:10;;;;;;;6.60;5.50;;;;;;;13.27;100.00;99975.21;137728;1272;22751;-81
2023/09/25 04:04:11;;;;;;;7.00;4.70;;;;;;;13.24;100.00;99969.21;137692;1272;22214;-81
2023/09/25 04:07:13;;;;;;;8.20;5.00;;;;;;;13.19;100.00;99973.66;137735;1272;22225;-83
2023/09/25 04:10:14;;;;;;;5.00;4.60;;;;;;;13.16;100.00;99977.27;137728;1272;22213;-82
2023/09/25 04:13:18;;;;;;;41.30;7.20;;;;;;;13.14;100.00;99980.52;137685;1272;22868;-81
2023/09/25 04:16:19;;;;;;;36.20;7.50;;;;;;;13.14;100.00;99978.23;137702;1272;23230;-82
2023/09/25 04:19:20;;;;;;;11.70;5.60;;;;;;;13.14;100.00;99981.21;137717;1272;22363;-81
2023/09/25 04:22:21;;;;;;;6.30;4.80;;;;;;;13.15;100.00;99985.95;137700;1272;22209;-82
2023/09/25 04:25:23;;;;;;;7.10;5.20;;;;;;;13.15;100.00;99984.91;137671;1272;22420;-79
2023/09/25 04:28:25;;;;;;;16.50;6.20;;;;;;;13.16;100.00;99983.90;137689;1269;22709;-80
2023/09/25 04:31:28;;;;;;;57.50;8.40;;;;;;;13.17;100.00;99984.10;137660;1272;22120;-82
2023/09/25 04:34:29;;;;;;;7.60;5.40;;;;;;;13.20;100.00;99983.29;137745;1272;22251;-82
2023/09/25 04:37:30;;;;;;;10.20;6.20;;;;;;;13.23;100.00;99987.55;137272;1272;22750;-81
2023/09/25 04:40:31;;;;;;;10.50;5.20;;;;;;;13.27;100.00;99990.77;137715;1272;22439;-83
2023/09/25 04:43:33;;;;;;;8.40;6.00;;;;;;;13.33;100.00;99992.11;137702;1272;22162;-81
2023/09/25 04:46:34;;;;;;;10.40;6.00;;;;;;;13.40;100.00;99990.14;137736;1272;22252;-82
2023/09/25 04:49:35;;;;;;;7.70;5.40;;;;;;;13.47;100.00;99994.99;137722;1272;22086;-83
2023/09/25 04:52:36;;;;;;;6.80;5.40;;;;;;;13.54;100.00;99999.85;137722;1272;22188;-80
2023/09/25 04:55:37;;;;;;;17.10;5.90;;;;;;;13.62;100.00;100002.44;137716;1272;22193;-81
2023/09/25 04:58:38;;;;;;;14.80;5.50;;;;;;;13.69;100.00;100003.44;137358;1270;22284;-84
2023/09/25 05:01:39;;;;;;;8.70;5.80;;;;;;;13.77;100.00;100004.10;137705;1272;22767;-81
2023/09/25 05:04:43;;;;;;;11.30;5.80;;;;;;;13.85;100.00;100003.36;137619;1272;22256;-84
2023/09/25 05:07:44;;;;;;;87.80;9.00;;;;;;;13.92;100.00;100002.64;137304;1272;24330;-83
2023/09/25 05:10:45;;;;;;;30.60;6.80;;;;;;;14.00;100.00;100004.70;137603;1272;22389;-83
2023/09/25 05:13:46;;;;;;;8.20;5.30;;;;;;;14.08;100.00;100007.79;137710;1272;22655;-81
2023/09/25 05:16:48;;;;;;;24.30;6.60;;;;;;;14.14;100.00;100003.70;137721;1272;22209;-83
2023/09/25 05:19:49;;;;;;;22.70;8.10;;;;;;;14.21;100.00;100006.96;137702;1272;22110;-83
2023/09/25 05:22:50;;;;;;;10.80;6.50;;;;;;;14.28;100.00;100013.89;137540;1272;22475;-83
2023/09/25 05:25:52;;;;;;;15.10;6.20;;;;;;;14.35;100.00;100014.52;137657;1272;22880;-84
2023/09/25 05:28:53;;;;;;;71.50;9.90;;;;;;;14.40;100.00;100015.48;137717;1272;22808;-83
2023/09/25 05:31:54;;;;;;;10.70;5.80;;;;;;;14.47;100.00;100020.52;137563;1272;22231;-82
2023/09/25 05:34:55;;;;;;;21.00;7.00;;;;;;;14.52;100.00;100020.78;137659;1272;22212;-83
2023/09/25 05:37:57;;;;;;;33.40;7.40;;;;;;;14.60;100.00;100022.99;137340;1272;23109;-83
2023/09/25 05:40:58;;;;;;;8.80;6.30;;;;;;;14.67;100.00;100020.80;136972;1269;22583;-83
2023/09/25 05:43:59;;;;;;;11.50;6.20;;;;;;;14.75;100.00;100017.77;137057;1272;22227;-81
2023/09/25 05:47:00;;;;;;;13.40;6.70;;;;;;;14.82;100.00;100021.39;137189;1272;22538;-82
2023/09/25 05:50:01;;;;;;;12.80;6.40;;;;;;;14.86;100.00;100018.13;137502;1272;22113;-81
2023/09/25 05:53:03;;;;;;;8.80;5.90;;;;;;;14.94;100.00;100023.66;137656;1272;22798;-80
2023/09/25 05:56:04;;;;;;;16.90;6.70;;;;;;;15.04;100.00;100024.14;137629;1272;22563;-81
2023/09/25 05:59:05;;;;;;;8.40;6.80;;;;;;;15.13;100.00;100026.89;137611;1272;22189;-82
2023/09/25 06:02:07;;;;;;;23.10;7.80;;;;;;;15.21;100.00;100025.94;137456;1269;22594;-82
2023/09/25 06:05:09;;;;;;;7.20;6.00;;;;;;;15.33;100.00;100027.83;137446;1272;22749;-84
2023/09/25 06:08:10;;;;;;;14.40;7.00;;;;;;;15.45;100.00;100023.75;137581;1272;22655;-81
2023/09/25 06:11:11;;;;;;;9.10;6.70;;;;;;;15.60;100.00;100025.35;137728;1272;22195;-81
2023/09/25 06:14:12;;;;;;;7.40;6.70;;;;;;;15.71;100.00;100024.09;137738;1272;22252;-82
2023/09/25 06:17:15;;;;;;;41.10;8.80;;;;;;;15.76;100.00;100025.19;137710;1272;22319;-79
2023/09/25 06:20:16;;;;;;;8.80;6.80;;;;;;;15.81;100.00;100026.29;137670;1272;22187;-83
2023/09/25 06:23:17;;;;;;;9.80;7.50;;;;;;;15.85;100.00;100031.59;137509;1272;22235;-81
2023/09/25 06:26:19;;;;;;;22.50;7.10;;;;;;;15.87;100.00;100026.35;137655;1272;22124;-81
2023/09/25 06:29:21;;;;;;;11.60;6.30;;;;;;;16.02;100.00;100025.08;137236;1272;22228;-82
2023/09/25 06:32:22;;;;;;;7.30;6.50;;;;;;;16.37;100.00;100022.89;137727;1272;22748;-82
2023/09/25 06:35:23;;;;;;;7.50;5.70;;;;;;;16.68;100.00;100023.67;137704;1272;22165;-81
2023/09/25 06:38:25;;;;;;;6.00;5.50;;;;;;;16.85;100.00;100020.79;137737;1272;22462;-81
2023/09/25 06:41:26;;;;;;;6.10;5.50;;;;;;;16.99;100.00;100016.98;137688;1272;22774;-81
2023/09/25 06:44:27;;;;;;;8.60;5.50;;;;;;;17.19;100.00;100016.55;137729;1272;22269;-82
2023/09/25 06:47:28;;;;;;;6.60;5.30;;;;;;;17.33;100.00;100016.25;137709;1272;22446;-83
2023/09/25 06:50:30;;;;;;;6.80;5.20;;;;;;;17.44;100.00;100018.95;137335;1272;22230;-82
2023/09/25 06:53:31;;;;;;;6.80;6.10;;;;;;;17.58;100.00;100019.16;137712;1272;22352;-80
2023/09/25 06:56:32;;;;;;;8.00;5.50;;;;;;;17.65;100.00;100017.60;137651;1272;22327;-81
2023/09/25 06:59:34;;;;;;;47.30;7.10;;;;;;;17.65;100.00;100020.23;137720;1272;22216;-83
2023/09/25 07:02:36;;;;;;;5.40;5.00;;;;;;;17.74;100.00;100016.76;137690;1272;22251;-81
2023/09/25 07:05:37;;;;;;;16.90;5.70;;;;;;;17.92;100.00;100013.96;137689;1272;22806;-81
2023/09/25 07:08:38;;;;;;;7.50;5.00;;;;;;;17.99;100.00;100010.45;137689;1272;22157;-82
2023/09/25 07:11:39;;;;;;;7.40;5.40;;;;;;;18.09;100.00;100008.33;137710;1272;22812;-83
2023/09/25 07:14:40;;;;;;;8.50;5.00;;;;;;;18.25;100.00;100006.59;137751;1272;22662;-83
2023/09/25 07:17:42;;;;;;;8.00;5.20;;;;;;;18.39;100.00;100006.05;137738;1272;22353;-82
2023/09/25 07:20:45;;;;;;;8.40;4.60;;;;;;;18.45;100.00;100002.70;137295;1272;23213;-81
2023/09/25 07:23:46;;;;;;;6.50;5.00;;;;;;;18.52;100.00;100003.02;137635;1272;22082;-80
2023/09/25 07:26:48;;;;;;;5.60;4.50;;;;;;;18.66;100.00;100003.38;137656;1272;22320;-83
2023/09/25 07:29:49;;;;;;;200.30;17.70;;;;;;;19.05;100.00;100006.61;137638;1272;22363;-83
2023/09/25 07:32:50;;;;;;;69.00;8.80;;;;;;;19.74;100.00;100013.70;137718;1272;22498;-82
2023/09/25 07:35:52;;;;;;;143.40;13.40;;;;;;;20.49;100.00;100011.72;137711;1272;22218;-81
2023/09/25 07:38:54;;;;;;;40.80;7.10;;;;;;;21.07;100.00;100014.66;137480;1272;22393;-84
2023/09/25 07:41:56;;;;;;;15.00;5.40;;;;;;;21.23;100.00;100016.27;137271;1272;22537;-83
2023/09/25 07:44:58;;;;;;;17.40;5.20;;;;;;;21.22;100.00;100020.33;137686;1272;22511;-77
2023/09/25 07:47:59;;;;;;;14.90;4.60;;;;;;;21.26;100.00;100021.90;137707;1272;22219;-82
2023/09/25 07:51:03;;;;;;;12.70;4.70;;;;;;;21.22;100.00;100022.45;137315;1272;22252;-85
2023/09/25 07:54:05;;;;;;;15.50;4.30;;;;;;;21.23;100.00;100025.27;137688;1267;22271;-83
2023/09/25 07:57:06;;;;;;;11.00;4.10;;;;;;;21.43;100.00;100033.52;137703;1272;22321;-83
2023/09/25 08:00:10;;;;;;;10.70;5.00;;;;;;;21.38;100.00;100028.46;137736;1272;23164;-83
2023/09/25 08:03:15;;;;;;;4.50;3.40;;;;;;;21.43;100.00;100029.99;137729;1272;22568;-83
2023/09/25 08:06:18;;;;;;;5.00;3.40;;;;;;;21.32;100.00;100029.25;137661;1272;22235;-83
2023/09/25 08:09:20;;;;;;;9.10;4.20;;;;;;;21.22;100.00;100024.93;137736;1272;22264;-84
2023/09/25 08:12:21;;;;;;;52.10;6.10;;;;;;;21.24;100.00;100025.98;137509;1272;22577;-82
2023/09/25 08:15:23;;;;;;;83.80;7.60;;;;;;;21.22;100.00;100030.42;137546;1272;22876;-81
2023/09/25 08:18:24;;;;;;;15.40;3.90;;;;;;;20.99;100.00;100030.16;137458;1272;22771;-82
2023/09/25 08:21:25;;;;;;;13.40;4.00;;;;;;;21.12;100.00;100023.80;137701;1272;22107;-82
2023/09/25 08:24:26;;;;;;;3.80;3.00;;;;;;;21.31;100.00;100028.39;137701;1272;22269;-84
2023/09/25 08:27:28;;;;;;;10.70;3.60;;;;;;;21.41;100.00;100029.84;137692;1272;22223;-82
2023/09/25 08:30:31;;;;;;;11.70;4.00;;;;;;;21.45;100.00;100034.92;137684;1272;22328;-83
2023/09/25 08:33:32;;;;;;;46.80;6.00;;;;;;;21.47;100.00;100037.90;137726;1272;22221;-85
2023/09/25 08:36:34;;;;;;;5.00;3.10;;;;;;;21.56;100.00;100037.41;137719;1272;22717;-80
2023/09/25 08:39:35;;;;;;;3.30;3.00;;;;;;;21.24;100.00;100037.66;137588;1269;22245;-81
2023/09/25 08:42:37;;;;;;;4.60;3.00;;;;;;;20.80;100.00;100042.03;137711;1272;22176;-80
2023/09/25 08:45:38;;;;;;;66.10;7.50;;;;;;;20.57;100.00;100038.18;137644;1272;22247;-80
2023/09/25 08:48:39;;;;;;;7.00;3.30;;;;;;;20.46;100.00;100031.75;137228;1263;22258;-81
2023/09/25 08:51:41;;;;;;;6.70;3.10;;;;;;;20.37;100.00;100032.52;137714;1272;22085;-82
2023/09/25 08:54:42;;;;;;;3.20;2.90;;;;;;;20.37;100.00;100029.16;137764;1266;22236;-81
2023/09/25 08:57:43;;;;;;;8.40;3.10;;;;;;;20.41;100.00;100031.09;137270;1272;22237;-82
2023/09/25 09:00:44;;;;;;;4.50;2.90;;;;;;;20.47;100.00;100034.04;137723;1272;22659;-81
2023/09/25 09:03:45;;;;;;;8.60;3.40;;;;;;;20.58;100.00;100032.69;137739;1272;22185;-82
2023/09/25 09:06:47;;;;;;;10.00;4.70;;;;;;;20.62;100.00;100036.20;137501;1272;23424;-82
2023/09/25 09:09:48;;;;;;;3.70;3.00;;;;;;;20.70;100.00;100036.10;137480;1272;22540;-82
2023/09/25 09:12:49;;;;;;;4.00;2.80;;;;;;;20.82;100.00;100036.19;137439;1269;22547;-81
2023/09/25 09:15:50;;;;;;;3.90;3.10;;;;;;;20.85;100.00;100032.98;137203;1272;22661;-81
2023/09/25 09:18:51;;;;;;;3.40;3.10;;;;;;;20.91;100.00;100022.30;137685;1270;22108;-81
2023/09/25 09:21:52;;;;;;;10.80;3.20;;;;;;;20.85;100.00;100025.19;137700;1272;22431;-82
2023/09/25 09:24:56;;;;;;;4.50;3.40;;;;;;;20.79;100.00;100025.77;137630;1272;22734;-82
2023/09/25 09:27:57;;;;;;;5.10;2.70;;;;;;;20.77;100.00;100021.70;137724;1272;22255;-82
2023/09/25 09:30:59;;;;;;;8.40;3.30;;;;;;;20.89;100.00;100014.34;137674;1272;22340;-81
2023/09/25 09:34:00;;;;;;;5.00;2.90;;;;;;;20.99;100.00;100012.27;137443;1272;22273;-80
2023/09/25 09:37:02;;;;;;;8.50;3.10;;;;;;;21.15;100.00;100009.25;137329;1269;22612;-82
2023/09/25 09:40:09;;;;;;;5.10;2.60;;;;;;;21.35;100.00;100007.27;137634;1272;22308;-81
2023/09/25 09:43:10;;;;;;;8.70;3.00;;;;;;;21.61;100.00;100003.17;137051;1272;176343;-86
2023/09/25 09:46:15;;;;;;;5.70;2.80;;;;;;;21.99;100.00;99997.83;137445;1272;22898;-82
2023/09/25 09:49:16;;;;;;;26.00;4.70;;;;;;;22.22;100.00;99996.06;137720;1272;22390;-84
2023/09/25 09:52:19;;;;;;;3.30;2.70;;;;;;;22.10;100.00;99995.02;137110;1272;22245;-82
2023/09/25 09:55:21;;;;;;;8.70;2.80;;;;;;;22.39;100.00;99995.58;137694;1272;22595;-82
2023/09/25 09:58:26;;;;;;;4.80;2.60;;;;;;;22.52;100.00;99989.84;137608;1272;22397;-83
2023/09/25 10:01:28;;;;;;;3.20;2.50;;;;;;;22.57;100.00;99991.54;137666;1272;22273;-83
2023/09/25 10:04:29;;;;;;;5.60;2.50;;;;;;;22.41;100.00;99996.79;137174;1272;22245;-83
2023/09/25 10:07:30;;;;;;;3.90;2.20;;;;;;;22.27;100.00;99998.64;137756;1272;22287;-82
2023/09/25 10:10:31;;;;;;;3.30;2.40;;;;;;;22.16;100.00;100001.66;137700;1272;22223;-82
2023/09/25 10:13:34;;;;;;;12.90;3.00;;;;;;;22.10;100.00;100000.52;137364;1272;22522;-82
2023/09/25 10:16:35;;;;;;;24.10;3.30;;;;;;;22.15;100.00;99998.30;137471;1272;22546;-80
2023/09/25 10:19:36;;;;;;;6.40;2.50;;;;;;;22.25;100.00;99997.77;137426;1269;22222;-81
2023/09/25 10:22:37;;;;;;;3.20;2.50;;;;;;;22.25;100.00;99994.05;137688;1272;22270;-82
2023/09/25 10:25:38;;;;;;;4.70;2.40;;;;;;;22.14;100.00;99997.61;137737;1269;22335;-81
2023/09/25 10:28:39;;;;;;;3.50;2.10;;;;;;;22.00;100.00;99997.11;137676;1272;22472;-83
2023/09/25 10:31:42;;;;;;;3.30;2.10;;;;;;;21.92;100.00;99990.69;137365;1272;22238;-84
2023/09/25 10:34:44;;;;;;;276.60;23.00;;;;;;;21.86;100.00;99989.36;137175;1272;22589;-83
2023/09/25 10:37:45;;;;;;;13.20;3.40;;;;;;;21.91;100.00;99986.63;137501;1272;22546;-83
2023/09/25 10:40:51;;;;;;;;;;;;;;;22.02;100.00;99979.36;137209;1272;22551;-81
2023/09/25 10:43:57;;;;;;;10.10;2.80;;;;;;;22.11;100.00;99975.15;137336;1271;22610;-85
2023/09/25 10:46:58;;;;;;;4.50;2.00;;;;;;;22.26;100.00;99974.89;137680;1272;22239;-85
2023/09/25 10:49:59;;;;;;;23.40;3.30;;;;;;;22.38;100.00;99977.69;137631;1272;22405;-86
2023/09/25 10:53:03;;;;;;;;;;;;;;;22.57;100.00;99975.05;137775;1272;22333;-82
2023/09/25 10:56:06;;;;;;;2.70;1.90;;;;;;;22.67;100.00;99975.05;137787;1272;22215;-82
2023/09/25 10:59:08;;;;;;;2.10;1.90;;;;;;;22.58;100.00;99973.27;137554;1272;22149;-83
2023/09/25 11:02:09;;;;;;;2.80;1.90;;;;;;;22.57;100.00;99977.17;137517;1272;24227;-83
2023/09/25 11:05:11;;;;;;;7.90;2.10;;;;;;;22.50;100.00;99972.49;137593;1272;22572;-84
2023/09/25 11:08:15;;;;;;;10.80;2.30;;;;;;;22.47;100.00;99978.05;137536;1266;22420;-83
2023/09/25 11:11:17;;;;;;;3.80;1.90;;;;;;;22.52;100.00;99978.15;137729;1272;22984;-83
2023/09/25 11:14:18;;;;;;;3.00;2.40;;;;;;;22.62;100.00;99968.59;137528;1272;22524;-84
2023/09/25 11:17:20;;;;;;;2.30;2.10;;;;;;;22.63;100.00;99968.21;137484;1272;22239;-84
2023/09/25 11:20:22;;;;;;;2.50;2.10;;;;;;;22.63;100.00;99968.92;137550;1272;22606;-83
2023/09/25 11:23:24;;;;;;;2.40;2.20;;;;;;;22.63;100.00;99967.66;137589;1272;22550;-83
2023/09/25 11:26:27;;;;;;;3.30;2.10;;;;;;;22.65;100.00;99971.71;137690;1266;22216;-84
2023/09/25 11:29:28;;;;;;;4.30;2.50;;;;;;;22.68;100.00;99972.36;137478;1272;22438;-83
2023/09/25 11:32:30;;;;;;;18.80;3.70;;;;;;;22.68;100.00;99976.09;137698;1272;22074;-82
2023/09/25 11:35:34;;;;;;;5.10;2.60;;;;;;;22.70;100.00;99972.15;137680;1272;22444;-82
2023/09/25 11:38:35;;;;;;;3.40;2.60;;;;;;;22.67;100.00;99973.27;137634;1272;22801;-80
2023/09/25 11:41:36;;;;;;;2.70;2.40;;;;;;;22.56;100.00;99970.81;137697;1272;22215;-82
2023/09/25 11:44:38;;;;;;;7.00;3.20;;;;;;;22.56;100.00;99977.38;137653;1272;22904;-83
2023/09/25 11:47:39;;;;;;;2.70;2.50;;;;;;;22.47;100.00;99978.95;137683;1272;22957;-84
2023/09/25 11:50:43;;;;;;;2.90;2.60;;;;;;;22.37;100.00;99980.73;137703;1272;22713;-84
2023/09/25 11:53:44;;;;;;;4.70;3.10;;;;;;;22.30;100.00;99983.34;137648;1272;22564;-82
2023/09/25 11:56:46;;;;;;;2.70;2.50;;;;;;;22.26;100.00;99983.41;137656;1272;23224;-83
2023/09/25 11:59:49;;;;;;;6.20;2.70;;;;;;;22.21;100.00;99981.52;137683;1272;23055;-82
2023/09/25 12:02:50;;;;;;;34.70;5.70;;;;;;;22.20;100.00;99980.48;137699;1272;22143;-85
2023/09/25 12:05:52;;;;;;;4.80;2.60;;;;;;;22.29;100.00;99977.67;137643;1272;22288;-81
2023/09/25 12:08:53;;;;;;;3.10;2.50;;;;;;;22.33;100.00;99976.18;137658;1272;23195;-82
2023/09/25 12:11:55;;;;;;;6.60;2.90;;;;;;;22.31;100.00;99979.59;137657;1266;22103;-83
2023/09/25 12:14:58;;;;;;;4.90;2.40;;;;;;;22.32;100.00;99979.41;137651;1272;22223;-85
2023/09/25 12:17:59;;;;;;;3.00;2.50;;;;;;;22.16;100.00;99978.77;137637;1272;22216;-84
2023/09/25 12:21:00;;;;;;;2.90;2.60;;;;;;;22.04;100.00;99974.73;137699;1272;22473;-85
2023/09/25 12:24:05;;;;;;;5.50;2.70;;;;;;;22.05;100.00;99975.61;137490;1272;22302;-80
2023/09/25 12:27:06;;;;;;;11.60;3.00;;;;;;;22.06;100.00;99971.35;137620;1272;22155;-82
2023/09/25 12:30:08;;;;;;;6.10;3.60;;;;;;;22.13;100.00;99968.55;137588;1262;22465;-82
2023/09/25 12:33:20;;;;;;;3.70;2.50;;;;;;;22.22;100.00;99965.56;137630;1272;22183;-81
2023/09/25 12:36:21;;;;;;;4.10;2.90;;;;;;;22.30;100.00;99969.32;137662;1272;22803;-82
2023/09/25 12:39:22;;;;;;;4.40;3.40;;;;;;;22.34;100.00;99968.55;137662;1272;22896;-81
2023/09/25 12:42:23;;;;;;;383.50;32.80;;;;;;;22.23;100.00;99965.38;137620;1271;22124;-81
2023/09/25 12:45:24;;;;;;;9.10;3.90;;;;;;;22.10;100.00;99963.29;137665;1272;22801;-81
2023/09/25 12:48:25;;;;;;;3.30;3.00;;;;;;;22.00;100.00;99961.84;137466;1272;22284;-80
2023/09/25 12:51:27;;;;;;;17.90;3.50;;;;;;;21.81;100.00;99965.17;137718;1272;22181;-81
2023/09/25 12:54:28;;;;;;;6.20;2.70;;;;;;;21.69;100.00;99958.08;137696;1272;22283;-80
2023/09/25 12:57:29;;;;;;;6.90;3.20;;;;;;;21.68;100.00;99956.50;137336;1272;22225;-81
2023/09/25 13:00:31;;;;;;;5.50;2.90;;;;;;;21.76;100.00;99961.52;137724;1272;22110;-81
2023/09/25 13:03:32;;;;;;;4.50;3.10;;;;;;;21.77;100.00;99961.86;137734;1272;22759;-80
2023/09/25 13:06:34;;;;;;;5.30;3.60;;;;;;;21.81;100.00;99960.73;137649;1272;22288;-81
2023/09/25 13:09:35;;;;;;;9.10;3.50;;;;;;;21.85;100.00;99958.71;137681;1272;22661;-81
2023/09/25 13:12:37;;;;;;;19.00;4.60;;;;;;;21.86;100.00;99960.13;137693;1272;22422;-81
2023/09/25 13:15:38;;;;;;;4.30;3.40;;;;;;;21.81;100.00;99961.27;137702;1272;22219;-80
2023/09/25 13:18:39;;;;;;;47.30;6.90;;;;;;;21.74;100.00;99958.20;137673;1272;22247;-79
2023/09/25 13:21:40;;;;;;;7.40;3.60;;;;;;;21.67;100.00;99960.41;137607;1272;22798;-80
2023/09/25 13:24:42;;;;;;;39.80;5.60;;;;;;;21.61;100.00;99960.66;137646;1272;22322;-80
2023/09/25 13:27:48;;;;;;;8.90;3.60;;;;;;;21.53;100.00;99960.60;137647;1272;22335;-82
2023/09/25 13:30:50;;;;;;;3.90;2.90;;;;;;;21.52;100.00;99963.11;137644;1272;22106;-83
2023/09/25 13:33:51;;;;;;;791.90;65.40;;;;;;;21.46;100.00;99958.77;137665;1272;23239;-81
2023/09/25 13:36:52;;;;;;;9.70;4.00;;;;;;;21.42;100.00;99955.45;137690;1272;22270;-82
2023/09/25 13:39:56;;;;;;;6.90;3.30;;;;;;;21.41;100.00;99948.92;137746;1256;22049;-83
2023/09/25 13:42:57;;;;;;;;;;;;;;;21.37;100.00;99945.26;137724;1272;22354;-83
2023/09/25 13:45:58;;;;;;;5.00;3.90;;;;;;;21.24;100.00;99947.20;137706;1272;22217;-83
2023/09/25 13:49:00;;;;;;;3.90;3.60;;;;;;;21.15;100.00;99940.40;137723;1272;22108;-81